sensor_id;sensor_type;location;lat;lon;timestamp;P1;durP1;ratioP1;P2;durP2;ratioP2
62353;SDS011;48391;49.184;2.418;2024-01-27T00:00:39;15.38;;;11.02;;
62353;SDS011;48391;49.184;2.418;2024-01-27T00:03:08;17.98;;;10.90;;
62353;SDS011;48391;49.184;2.418;2024-01-27T00:05:34;15.88;;;10.90;;
62353;SDS011;48391;49.184;2.418;2024-01-27T00:08:03;19.55;;;10.52;;
62353;SDS011;48391;49.184;2.418;2024-01-27T00:10:29;15.52;;;9.60;;
62353;SDS011;48391;49.184;2.418;2024-01-27T00:12:55;17.95;;;10.00;;
62353;SDS011;48391;49.184;2.418;2024-01-27T00:15:22;14.90;;;9.20;;
62353;SDS011;48391;49.184;2.418;2024-01-27T00:17:48;15.40;;;8.48;;
62353;SDS011;48391;49.184;2.418;2024-01-27T00:20:14;12.70;;;9.02;;
62353;SDS011;48391;49.184;2.418;2024-01-27T00:22:40;11.43;;;7.78;;
62353;SDS011;48391;49.184;2.418;2024-01-27T00:25:07;15.20;;;10.10;;
62353;SDS011;48391;49.184;2.418;2024-01-27T00:27:33;15.50;;;9.30;;
62353;SDS011;48391;49.184;2.418;2024-01-27T00:29:59;11.70;;;8.80;;
62353;SDS011;48391;49.184;2.418;2024-01-27T00:32:25;10.20;;;7.70;;
62353;SDS011;48391;49.184;2.418;2024-01-27T00:34:51;11.07;;;8.20;;
62353;SDS011;48391;49.184;2.418;2024-01-27T00:37:17;16.88;;;7.88;;
62353;SDS011;48391;49.184;2.418;2024-01-27T00:39:43;13.82;;;8.30;;
62353;SDS011;48391;49.184;2.418;2024-01-27T00:42:10;12.88;;;9.07;;
62353;SDS011;48391;49.184;2.418;2024-01-27T00:44:37;15.73;;;10.52;;
62353;SDS011;48391;49.184;2.418;2024-01-27T00:47:03;15.52;;;10.80;;
62353;SDS011;48391;49.184;2.418;2024-01-27T00:49:29;16.70;;;9.43;;
62353;SDS011;48391;49.184;2.418;2024-01-27T00:51:55;18.60;;;9.52;;
62353;SDS011;48391;49.184;2.418;2024-01-27T00:54:21;18.65;;;9.63;;
62353;SDS011;48391;49.184;2.418;2024-01-27T00:56:47;22.33;;;12.38;;
62353;SDS011;48391;49.184;2.418;2024-01-27T00:59:13;19.23;;;12.85;;
62353;SDS011;48391;49.184;2.418;2024-01-27T01:01:40;18.85;;;10.27;;
62353;SDS011;48391;49.184;2.418;2024-01-27T01:06:38;16.55;;;11.18;;
62353;SDS011;48391;49.184;2.418;2024-01-27T01:09:04;15.60;;;9.98;;
62353;SDS011;48391;49.184;2.418;2024-01-27T01:11:30;12.85;;;9.75;;
62353;SDS011;48391;49.184;2.418;2024-01-27T01:13:56;11.90;;;8.40;;
62353;SDS011;48391;49.184;2.418;2024-01-27T01:16:22;18.92;;;11.82;;
62353;SDS011;48391;49.184;2.418;2024-01-27T01:18:48;13.45;;;9.65;;
62353;SDS011;48391;49.184;2.418;2024-01-27T01:21:16;12.95;;;9.20;;
62353;SDS011;48391;49.184;2.418;2024-01-27T01:23:42;14.82;;;9.98;;
62353;SDS011;48391;49.184;2.418;2024-01-27T01:26:08;16.55;;;10.90;;
62353;SDS011;48391;49.184;2.418;2024-01-27T01:28:34;14.57;;;9.38;;
62353;SDS011;48391;49.184;2.418;2024-01-27T01:31:00;15.55;;;9.70;;
62353;SDS011;48391;49.184;2.418;2024-01-27T01:33:28;15.07;;;8.38;;
62353;SDS011;48391;49.184;2.418;2024-01-27T01:35:54;18.15;;;10.68;;
62353;SDS011;48391;49.184;2.418;2024-01-27T01:38:20;19.17;;;11.27;;
62353;SDS011;48391;49.184;2.418;2024-01-27T01:40:46;19.48;;;11.45;;
62353;SDS011;48391;49.184;2.418;2024-01-27T01:43:12;19.50;;;11.50;;
62353;SDS011;48391;49.184;2.418;2024-01-27T01:45:38;19.88;;;11.20;;
62353;SDS011;48391;49.184;2.418;2024-01-27T01:48:04;17.65;;;11.82;;
62353;SDS011;48391;49.184;2.418;2024-01-27T01:50:31;21.98;;;11.82;;
62353;SDS011;48391;49.184;2.418;2024-01-27T01:52:57;24.30;;;12.82;;
62353;SDS011;48391;49.184;2.418;2024-01-27T01:55:23;21.52;;;13.55;;
62353;SDS011;48391;49.184;2.418;2024-01-27T01:57:49;23.65;;;12.30;;
62353;SDS011;48391;49.184;2.418;2024-01-27T02:00:16;22.35;;;12.70;;
62353;SDS011;48391;49.184;2.418;2024-01-27T02:02:45;23.80;;;12.73;;
62353;SDS011;48391;49.184;2.418;2024-01-27T02:05:12;27.27;;;15.03;;
62353;SDS011;48391;49.184;2.418;2024-01-27T02:10:15;27.02;;;14.57;;
62353;SDS011;48391;49.184;2.418;2024-01-27T02:12:42;25.08;;;14.75;;
62353;SDS011;48391;49.184;2.418;2024-01-27T02:15:12;26.17;;;14.55;;
62353;SDS011;48391;49.184;2.418;2024-01-27T02:17:38;24.75;;;14.73;;
62353;SDS011;48391;49.184;2.418;2024-01-27T02:20:05;20.48;;;13.27;;
62353;SDS011;48391;49.184;2.418;2024-01-27T02:22:32;21.20;;;12.98;;
62353;SDS011;48391;49.184;2.418;2024-01-27T02:24:58;23.13;;;13.20;;
62353;SDS011;48391;49.184;2.418;2024-01-27T02:27:24;22.02;;;12.90;;
62353;SDS011;48391;49.184;2.418;2024-01-27T02:29:50;20.23;;;13.73;;
62353;SDS011;48391;49.184;2.418;2024-01-27T02:32:16;19.08;;;11.77;;
62353;SDS011;48391;49.184;2.418;2024-01-27T02:34:42;19.65;;;11.43;;
62353;SDS011;48391;49.184;2.418;2024-01-27T02:37:09;17.55;;;11.25;;
62353;SDS011;48391;49.184;2.418;2024-01-27T02:39:35;13.32;;;9.63;;
62353;SDS011;48391;49.184;2.418;2024-01-27T02:42:01;17.73;;;10.98;;
62353;SDS011;48391;49.184;2.418;2024-01-27T02:44:27;13.02;;;9.65;;
62353;SDS011;48391;49.184;2.418;2024-01-27T02:46:53;13.23;;;9.00;;
62353;SDS011;48391;49.184;2.418;2024-01-27T02:49:19;13.60;;;8.57;;
62353;SDS011;48391;49.184;2.418;2024-01-27T02:51:45;19.05;;;12.45;;
62353;SDS011;48391;49.184;2.418;2024-01-27T02:54:13;14.82;;;8.82;;
62353;SDS011;48391;49.184;2.418;2024-01-27T02:56:39;14.65;;;9.20;;
62353;SDS011;48391;49.184;2.418;2024-01-27T02:59:05;18.38;;;10.07;;
62353;SDS011;48391;49.184;2.418;2024-01-27T03:01:31;19.55;;;12.05;;
62353;SDS011;48391;49.184;2.418;2024-01-27T03:03:57;21.35;;;11.63;;
62353;SDS011;48391;49.184;2.418;2024-01-27T03:06:23;24.05;;;12.05;;
62353;SDS011;48391;49.184;2.418;2024-01-27T03:08:49;32.10;;;16.55;;
62353;SDS011;48391;49.184;2.418;2024-01-27T03:11:15;25.48;;;14.27;;
62353;SDS011;48391;49.184;2.418;2024-01-27T03:13:41;30.02;;;14.80;;
62353;SDS011;48391;49.184;2.418;2024-01-27T03:16:10;24.83;;;12.95;;
62353;SDS011;48391;49.184;2.418;2024-01-27T03:18:36;25.58;;;13.38;;
62353;SDS011;48391;49.184;2.418;2024-01-27T03:21:02;19.52;;;12.00;;
62353;SDS011;48391;49.184;2.418;2024-01-27T03:23:29;24.30;;;11.40;;
62353;SDS011;48391;49.184;2.418;2024-01-27T03:25:55;24.05;;;12.05;;
62353;SDS011;48391;49.184;2.418;2024-01-27T03:28:21;17.33;;;9.90;;
62353;SDS011;48391;49.184;2.418;2024-01-27T03:30:47;21.55;;;11.48;;
62353;SDS011;48391;49.184;2.418;2024-01-27T03:33:13;20.02;;;10.52;;
62353;SDS011;48391;49.184;2.418;2024-01-27T03:35:39;15.63;;;9.18;;
62353;SDS011;48391;49.184;2.418;2024-01-27T03:38:05;15.68;;;8.18;;
62353;SDS011;48391;49.184;2.418;2024-01-27T03:40:31;17.48;;;9.80;;
62353;SDS011;48391;49.184;2.418;2024-01-27T03:42:57;14.73;;;9.18;;
62353;SDS011;48391;49.184;2.418;2024-01-27T03:45:23;13.10;;;9.20;;
62353;SDS011;48391;49.184;2.418;2024-01-27T03:47:49;13.75;;;7.53;;
62353;SDS011;48391;49.184;2.418;2024-01-27T03:50:15;14.95;;;8.07;;
62353;SDS011;48391;49.184;2.418;2024-01-27T03:52:41;10.77;;;8.25;;
62353;SDS011;48391;49.184;2.418;2024-01-27T03:55:07;12.63;;;8.95;;
62353;SDS011;48391;49.184;2.418;2024-01-27T03:57:33;15.95;;;9.13;;
62353;SDS011;48391;49.184;2.418;2024-01-27T03:59:59;15.23;;;9.40;;
62353;SDS011;48391;49.184;2.418;2024-01-27T04:02:25;23.35;;;12.55;;
62353;SDS011;48391;49.184;2.418;2024-01-27T04:04:51;40.67;;;17.85;;
62353;SDS011;48391;49.184;2.418;2024-01-27T04:07:17;40.47;;;20.10;;
62353;SDS011;48391;49.184;2.418;2024-01-27T04:09:43;38.72;;;18.75;;
62353;SDS011;48391;49.184;2.418;2024-01-27T04:12:09;35.17;;;17.45;;
62353;SDS011;48391;49.184;2.418;2024-01-27T04:14:36;35.85;;;15.32;;
62353;SDS011;48391;49.184;2.418;2024-01-27T04:17:02;34.08;;;14.93;;
62353;SDS011;48391;49.184;2.418;2024-01-27T04:19:28;31.38;;;13.90;;
62353;SDS011;48391;49.184;2.418;2024-01-27T04:21:54;30.50;;;14.05;;
62353;SDS011;48391;49.184;2.418;2024-01-27T04:24:20;27.52;;;13.90;;
62353;SDS011;48391;49.184;2.418;2024-01-27T04:26:46;24.02;;;11.63;;
62353;SDS011;48391;49.184;2.418;2024-01-27T04:29:12;25.02;;;14.02;;
62353;SDS011;48391;49.184;2.418;2024-01-27T04:31:40;27.20;;;11.75;;
62353;SDS011;48391;49.184;2.418;2024-01-27T04:34:07;27.90;;;13.55;;
62353;SDS011;48391;49.184;2.418;2024-01-27T04:36:33;22.90;;;12.40;;
62353;SDS011;48391;49.184;2.418;2024-01-27T04:38:59;23.70;;;11.45;;
62353;SDS011;48391;49.184;2.418;2024-01-27T04:41:25;27.45;;;11.90;;
62353;SDS011;48391;49.184;2.418;2024-01-27T04:43:51;25.42;;;12.98;;
62353;SDS011;48391;49.184;2.418;2024-01-27T04:46:18;19.60;;;11.48;;
62353;SDS011;48391;49.184;2.418;2024-01-27T04:48:44;22.75;;;11.60;;
62353;SDS011;48391;49.184;2.418;2024-01-27T04:51:10;17.23;;;10.68;;
62353;SDS011;48391;49.184;2.418;2024-01-27T04:53:36;17.65;;;9.98;;
62353;SDS011;48391;49.184;2.418;2024-01-27T04:56:02;19.55;;;10.48;;
62353;SDS011;48391;49.184;2.418;2024-01-27T05:00:58;17.02;;;9.75;;
62353;SDS011;48391;49.184;2.418;2024-01-27T05:03:24;16.23;;;9.38;;
62353;SDS011;48391;49.184;2.418;2024-01-27T05:05:50;16.50;;;9.32;;
62353;SDS011;48391;49.184;2.418;2024-01-27T05:08:16;16.90;;;9.73;;
62353;SDS011;48391;49.184;2.418;2024-01-27T05:10:42;12.38;;;9.35;;
62353;SDS011;48391;49.184;2.418;2024-01-27T05:13:08;12.52;;;8.57;;
62353;SDS011;48391;49.184;2.418;2024-01-27T05:15:34;16.83;;;9.85;;
62353;SDS011;48391;49.184;2.418;2024-01-27T05:18:00;19.98;;;10.45;;
62353;SDS011;48391;49.184;2.418;2024-01-27T05:20:26;20.08;;;10.93;;
62353;SDS011;48391;49.184;2.418;2024-01-27T05:22:52;23.25;;;13.07;;
62353;SDS011;48391;49.184;2.418;2024-01-27T05:25:18;26.67;;;12.52;;
62353;SDS011;48391;49.184;2.418;2024-01-27T05:27:44;23.42;;;11.70;;
62353;SDS011;48391;49.184;2.418;2024-01-27T05:30:11;19.73;;;11.05;;
62353;SDS011;48391;49.184;2.418;2024-01-27T05:32:37;12.93;;;9.77;;
62353;SDS011;48391;49.184;2.418;2024-01-27T05:35:03;15.55;;;10.05;;
62353;SDS011;48391;49.184;2.418;2024-01-27T05:37:30;15.43;;;8.40;;
62353;SDS011;48391;49.184;2.418;2024-01-27T05:39:56;14.45;;;8.85;;
62353;SDS011;48391;49.184;2.418;2024-01-27T05:42:22;14.43;;;9.23;;
62353;SDS011;48391;49.184;2.418;2024-01-27T05:44:48;14.15;;;9.05;;
62353;SDS011;48391;49.184;2.418;2024-01-27T05:47:14;13.93;;;8.50;;
62353;SDS011;48391;49.184;2.418;2024-01-27T05:49:41;13.60;;;9.23;;
62353;SDS011;48391;49.184;2.418;2024-01-27T05:52:07;13.90;;;9.00;;
62353;SDS011;48391;49.184;2.418;2024-01-27T05:54:33;13.57;;;8.55;;
62353;SDS011;48391;49.184;2.418;2024-01-27T05:56:59;16.98;;;8.68;;
62353;SDS011;48391;49.184;2.418;2024-01-27T05:59:25;16.00;;;8.88;;
62353;SDS011;48391;49.184;2.418;2024-01-27T06:01:51;14.70;;;8.43;;
62353;SDS011;48391;49.184;2.418;2024-01-27T06:04:17;20.92;;;10.35;;
62353;SDS011;48391;49.184;2.418;2024-01-27T06:06:43;16.20;;;10.43;;
62353;SDS011;48391;49.184;2.418;2024-01-27T06:09:09;13.95;;;9.05;;
62353;SDS011;48391;49.184;2.418;2024-01-27T06:11:39;13.75;;;9.52;;
62353;SDS011;48391;49.184;2.418;2024-01-27T06:14:05;16.25;;;9.95;;
62353;SDS011;48391;49.184;2.418;2024-01-27T06:16:31;14.82;;;9.15;;
62353;SDS011;48391;49.184;2.418;2024-01-27T06:18:57;13.43;;;8.75;;
62353;SDS011;48391;49.184;2.418;2024-01-27T06:21:23;14.90;;;9.43;;
62353;SDS011;48391;49.184;2.418;2024-01-27T06:23:49;16.33;;;8.88;;
62353;SDS011;48391;49.184;2.418;2024-01-27T06:26:15;13.45;;;8.40;;
62353;SDS011;48391;49.184;2.418;2024-01-27T06:28:42;16.25;;;9.13;;
62353;SDS011;48391;49.184;2.418;2024-01-27T06:31:07;18.83;;;8.77;;
62353;SDS011;48391;49.184;2.418;2024-01-27T06:33:36;12.52;;;7.88;;
62353;SDS011;48391;49.184;2.418;2024-01-27T06:36:02;13.23;;;8.02;;
62353;SDS011;48391;49.184;2.418;2024-01-27T06:38:28;15.00;;;8.65;;
62353;SDS011;48391;49.184;2.418;2024-01-27T06:40:56;13.50;;;8.50;;
62353;SDS011;48391;49.184;2.418;2024-01-27T06:43:22;14.80;;;8.80;;
62353;SDS011;48391;49.184;2.418;2024-01-27T06:45:49;14.13;;;9.38;;
62353;SDS011;48391;49.184;2.418;2024-01-27T06:48:15;16.75;;;11.57;;
62353;SDS011;48391;49.184;2.418;2024-01-27T06:50:41;20.63;;;12.45;;
62353;SDS011;48391;49.184;2.418;2024-01-27T06:53:07;20.55;;;11.82;;
62353;SDS011;48391;49.184;2.418;2024-01-27T06:55:35;19.50;;;11.18;;
62353;SDS011;48391;49.184;2.418;2024-01-27T06:58:01;22.13;;;12.30;;
62353;SDS011;48391;49.184;2.418;2024-01-27T07:00:27;18.85;;;11.63;;
62353;SDS011;48391;49.184;2.418;2024-01-27T07:02:53;18.00;;;11.07;;
62353;SDS011;48391;49.184;2.418;2024-01-27T07:05:20;17.65;;;9.27;;
62353;SDS011;48391;49.184;2.418;2024-01-27T07:07:47;17.67;;;9.40;;
62353;SDS011;48391;49.184;2.418;2024-01-27T07:10:13;15.77;;;9.93;;
62353;SDS011;48391;49.184;2.418;2024-01-27T07:12:39;19.45;;;9.07;;
62353;SDS011;48391;49.184;2.418;2024-01-27T07:15:05;12.75;;;8.65;;
62353;SDS011;48391;49.184;2.418;2024-01-27T07:17:32;15.98;;;8.73;;
62353;SDS011;48391;49.184;2.418;2024-01-27T07:19:58;15.00;;;9.02;;
62353;SDS011;48391;49.184;2.418;2024-01-27T07:22:24;15.68;;;8.57;;
62353;SDS011;48391;49.184;2.418;2024-01-27T07:24:50;14.95;;;9.10;;
62353;SDS011;48391;49.184;2.418;2024-01-27T07:27:16;13.40;;;7.72;;
62353;SDS011;48391;49.184;2.418;2024-01-27T07:29:43;16.67;;;9.32;;
62353;SDS011;48391;49.184;2.418;2024-01-27T07:32:10;17.70;;;9.65;;
62353;SDS011;48391;49.184;2.418;2024-01-27T07:34:41;18.17;;;9.88;;
62353;SDS011;48391;49.184;2.418;2024-01-27T07:37:07;17.75;;;10.93;;
62353;SDS011;48391;49.184;2.418;2024-01-27T07:39:33;17.63;;;12.25;;
62353;SDS011;48391;49.184;2.418;2024-01-27T07:41:59;19.25;;;11.10;;
62353;SDS011;48391;49.184;2.418;2024-01-27T07:44:27;18.58;;;11.50;;
62353;SDS011;48391;49.184;2.418;2024-01-27T07:46:53;15.88;;;10.80;;
62353;SDS011;48391;49.184;2.418;2024-01-27T07:49:19;17.45;;;10.07;;
62353;SDS011;48391;49.184;2.418;2024-01-27T07:51:45;18.95;;;10.93;;
62353;SDS011;48391;49.184;2.418;2024-01-27T07:54:11;15.68;;;9.65;;
62353;SDS011;48391;49.184;2.418;2024-01-27T07:56:37;15.70;;;9.70;;
62353;SDS011;48391;49.184;2.418;2024-01-27T07:59:03;15.50;;;9.88;;
62353;SDS011;48391;49.184;2.418;2024-01-27T08:01:30;18.67;;;11.13;;
62353;SDS011;48391;49.184;2.418;2024-01-27T08:03:56;14.85;;;11.05;;
62353;SDS011;48391;49.184;2.418;2024-01-27T08:06:26;12.93;;;9.27;;
62353;SDS011;48391;49.184;2.418;2024-01-27T08:08:53;15.88;;;10.65;;
62353;SDS011;48391;49.184;2.418;2024-01-27T08:11:19;13.32;;;9.15;;
62353;SDS011;48391;49.184;2.418;2024-01-27T08:13:45;15.20;;;8.93;;
62353;SDS011;48391;49.184;2.418;2024-01-27T08:16:11;11.55;;;7.60;;
62353;SDS011;48391;49.184;2.418;2024-01-27T08:18:39;13.25;;;8.95;;
62353;SDS011;48391;49.184;2.418;2024-01-27T08:21:07;14.10;;;9.98;;
62353;SDS011;48391;49.184;2.418;2024-01-27T08:23:33;17.98;;;10.98;;
62353;SDS011;48391;49.184;2.418;2024-01-27T08:25:59;20.88;;;11.48;;
62353;SDS011;48391;49.184;2.418;2024-01-27T08:28:26;20.23;;;11.70;;
62353;SDS011;48391;49.184;2.418;2024-01-27T08:30:52;23.50;;;13.63;;
62353;SDS011;48391;49.184;2.418;2024-01-27T08:33:18;26.33;;;14.95;;
62353;SDS011;48391;49.184;2.418;2024-01-27T08:35:46;23.92;;;12.77;;
62353;SDS011;48391;49.184;2.418;2024-01-27T08:38:14;19.30;;;11.90;;
62353;SDS011;48391;49.184;2.418;2024-01-27T08:40:40;22.17;;;12.70;;
62353;SDS011;48391;49.184;2.418;2024-01-27T08:43:07;17.20;;;11.57;;
62353;SDS011;48391;49.184;2.418;2024-01-27T08:45:33;18.58;;;11.65;;
62353;SDS011;48391;49.184;2.418;2024-01-27T08:47:59;18.40;;;11.65;;
62353;SDS011;48391;49.184;2.418;2024-01-27T08:50:25;20.70;;;13.05;;
62353;SDS011;48391;49.184;2.418;2024-01-27T08:52:51;18.60;;;11.13;;
62353;SDS011;48391;49.184;2.418;2024-01-27T08:55:17;17.60;;;11.48;;
62353;SDS011;48391;49.184;2.418;2024-01-27T08:57:44;18.67;;;11.50;;
62353;SDS011;48391;49.184;2.418;2024-01-27T09:00:10;19.88;;;12.93;;
62353;SDS011;48391;49.184;2.418;2024-01-27T09:02:38;18.45;;;10.95;;
62353;SDS011;48391;49.184;2.418;2024-01-27T09:05:04;16.73;;;10.48;;
62353;SDS011;48391;49.184;2.418;2024-01-27T09:07:30;16.52;;;9.90;;
62353;SDS011;48391;49.184;2.418;2024-01-27T09:09:56;18.60;;;9.98;;
62353;SDS011;48391;49.184;2.418;2024-01-27T09:12:22;15.63;;;9.45;;
62353;SDS011;48391;49.184;2.418;2024-01-27T09:14:49;15.27;;;9.73;;
62353;SDS011;48391;49.184;2.418;2024-01-27T09:17:15;14.75;;;9.40;;
62353;SDS011;48391;49.184;2.418;2024-01-27T09:19:42;13.38;;;9.85;;
62353;SDS011;48391;49.184;2.418;2024-01-27T09:22:08;12.40;;;8.70;;
62353;SDS011;48391;49.184;2.418;2024-01-27T09:24:34;14.88;;;10.63;;
62353;SDS011;48391;49.184;2.418;2024-01-27T09:27:00;16.35;;;11.15;;
62353;SDS011;48391;49.184;2.418;2024-01-27T09:29:27;13.90;;;9.45;;
62353;SDS011;48391;49.184;2.418;2024-01-27T09:31:53;11.80;;;9.13;;
62353;SDS011;48391;49.184;2.418;2024-01-27T09:34:19;14.65;;;9.52;;
62353;SDS011;48391;49.184;2.418;2024-01-27T09:36:45;11.15;;;7.80;;
62353;SDS011;48391;49.184;2.418;2024-01-27T09:39:11;15.10;;;9.50;;
62353;SDS011;48391;49.184;2.418;2024-01-27T09:41:37;11.25;;;7.38;;
62353;SDS011;48391;49.184;2.418;2024-01-27T09:44:03;14.73;;;7.88;;
62353;SDS011;48391;49.184;2.418;2024-01-27T09:46:30;9.27;;;6.07;;
62353;SDS011;48391;49.184;2.418;2024-01-27T09:48:56;10.50;;;7.82;;
62353;SDS011;48391;49.184;2.418;2024-01-27T09:51:23;9.52;;;6.68;;
62353;SDS011;48391;49.184;2.418;2024-01-27T09:53:49;8.52;;;6.07;;
62353;SDS011;48391;49.184;2.418;2024-01-27T09:56:18;13.35;;;5.85;;
62353;SDS011;48391;49.184;2.418;2024-01-27T09:58:45;7.38;;;5.10;;
62353;SDS011;48391;49.184;2.418;2024-01-27T10:01:11;8.75;;;4.70;;
62353;SDS011;48391;49.184;2.418;2024-01-27T10:03:41;10.90;;;6.25;;
62353;SDS011;48391;49.184;2.418;2024-01-27T10:06:08;9.15;;;6.40;;
62353;SDS011;48391;49.184;2.418;2024-01-27T10:08:35;9.43;;;5.32;;
62353;SDS011;48391;49.184;2.418;2024-01-27T10:11:06;7.78;;;5.65;;
62353;SDS011;48391;49.184;2.418;2024-01-27T10:13:33;7.72;;;4.82;;
62353;SDS011;48391;49.184;2.418;2024-01-27T10:15:59;7.05;;;4.85;;
62353;SDS011;48391;49.184;2.418;2024-01-27T10:18:26;6.80;;;4.93;;
62353;SDS011;48391;49.184;2.418;2024-01-27T10:20:52;7.80;;;5.45;;
62353;SDS011;48391;49.184;2.418;2024-01-27T10:23:18;16.23;;;7.13;;
62353;SDS011;48391;49.184;2.418;2024-01-27T10:25:44;10.95;;;6.93;;
62353;SDS011;48391;49.184;2.418;2024-01-27T10:28:10;13.60;;;6.30;;
62353;SDS011;48391;49.184;2.418;2024-01-27T10:30:37;10.27;;;5.35;;
62353;SDS011;48391;49.184;2.418;2024-01-27T10:33:03;10.50;;;5.32;;
62353;SDS011;48391;49.184;2.418;2024-01-27T10:35:29;6.07;;;4.93;;
62353;SDS011;48391;49.184;2.418;2024-01-27T10:37:55;7.72;;;4.53;;
62353;SDS011;48391;49.184;2.418;2024-01-27T10:40:22;7.60;;;5.35;;
62353;SDS011;48391;49.184;2.418;2024-01-27T10:43:01;8.88;;;4.65;;
62353;SDS011;48391;49.184;2.418;2024-01-27T10:48:00;9.20;;;4.47;;
62353;SDS011;48391;49.184;2.418;2024-01-27T10:50:27;8.00;;;5.35;;
62353;SDS011;48391;49.184;2.418;2024-01-27T10:52:54;5.30;;;4.40;;
62353;SDS011;48391;49.184;2.418;2024-01-27T10:55:22;6.90;;;5.05;;
62353;SDS011;48391;49.184;2.418;2024-01-27T10:57:48;6.90;;;4.95;;
62353;SDS011;48391;49.184;2.418;2024-01-27T11:00:14;6.35;;;4.45;;
62353;SDS011;48391;49.184;2.418;2024-01-27T11:02:41;6.00;;;5.03;;
62353;SDS011;48391;49.184;2.418;2024-01-27T11:05:07;7.35;;;4.57;;
62353;SDS011;48391;49.184;2.418;2024-01-27T11:07:36;5.93;;;4.30;;
62353;SDS011;48391;49.184;2.418;2024-01-27T11:10:03;9.82;;;5.15;;
62353;SDS011;48391;49.184;2.418;2024-01-27T11:12:29;10.25;;;5.38;;
62353;SDS011;48391;49.184;2.418;2024-01-27T11:14:55;10.68;;;6.80;;
62353;SDS011;48391;49.184;2.418;2024-01-27T11:17:24;16.23;;;6.28;;
62353;SDS011;48391;49.184;2.418;2024-01-27T11:19:50;9.00;;;6.30;;
62353;SDS011;48391;49.184;2.418;2024-01-27T11:22:26;10.38;;;6.80;;
62353;SDS011;48391;49.184;2.418;2024-01-27T11:25:09;6.22;;;4.70;;
62353;SDS011;48391;49.184;2.418;2024-01-27T11:27:40;7.57;;;5.05;;
62353;SDS011;48391;49.184;2.418;2024-01-27T11:30:07;5.53;;;4.72;;
62353;SDS011;48391;49.184;2.418;2024-01-27T11:32:49;8.48;;;4.82;;
62353;SDS011;48391;49.184;2.418;2024-01-27T11:35:17;7.18;;;4.25;;
62353;SDS011;48391;49.184;2.418;2024-01-27T11:37:43;8.48;;;5.55;;
62353;SDS011;48391;49.184;2.418;2024-01-27T11:40:09;5.82;;;4.60;;
62353;SDS011;48391;49.184;2.418;2024-01-27T11:42:35;6.78;;;5.05;;
62353;SDS011;48391;49.184;2.418;2024-01-27T11:45:02;11.07;;;5.93;;
62353;SDS011;48391;49.184;2.418;2024-01-27T11:47:29;8.45;;;5.38;;
62353;SDS011;48391;49.184;2.418;2024-01-27T11:49:55;8.55;;;5.45;;
62353;SDS011;48391;49.184;2.418;2024-01-27T11:52:23;8.68;;;5.75;;
62353;SDS011;48391;49.184;2.418;2024-01-27T11:54:56;10.68;;;7.38;;
62353;SDS011;48391;49.184;2.418;2024-01-27T11:57:23;13.02;;;9.10;;
62353;SDS011;48391;49.184;2.418;2024-01-27T11:59:50;17.70;;;10.20;;
62353;SDS011;48391;49.184;2.418;2024-01-27T12:02:16;12.02;;;7.63;;
62353;SDS011;48391;49.184;2.418;2024-01-27T12:04:42;13.00;;;7.30;;
62353;SDS011;48391;49.184;2.418;2024-01-27T12:07:08;9.77;;;6.90;;
62353;SDS011;48391;49.184;2.418;2024-01-27T12:09:37;15.25;;;7.97;;
62353;SDS011;48391;49.184;2.418;2024-01-27T12:12:04;9.40;;;6.07;;
62353;SDS011;48391;49.184;2.418;2024-01-27T12:14:47;12.43;;;6.72;;
62353;SDS011;48391;49.184;2.418;2024-01-27T12:17:13;13.43;;;6.82;;
62353;SDS011;48391;49.184;2.418;2024-01-27T12:19:39;13.48;;;6.53;;
62353;SDS011;48391;49.184;2.418;2024-01-27T12:22:20;13.68;;;7.18;;
62353;SDS011;48391;49.184;2.418;2024-01-27T12:24:47;12.85;;;7.70;;
62353;SDS011;48391;49.184;2.418;2024-01-27T12:27:14;8.77;;;5.47;;
62353;SDS011;48391;49.184;2.418;2024-01-27T12:29:43;6.90;;;5.53;;
62353;SDS011;48391;49.184;2.418;2024-01-27T12:32:09;7.95;;;4.25;;
62353;SDS011;48391;49.184;2.418;2024-01-27T12:34:41;5.78;;;3.40;;
62353;SDS011;48391;49.184;2.418;2024-01-27T12:37:08;3.95;;;2.85;;
62353;SDS011;48391;49.184;2.418;2024-01-27T12:39:34;5.50;;;2.55;;
62353;SDS011;48391;49.184;2.418;2024-01-27T12:42:00;3.17;;;1.65;;
62353;SDS011;48391;49.184;2.418;2024-01-27T12:44:26;3.28;;;2.03;;
62353;SDS011;48391;49.184;2.418;2024-01-27T12:46:53;3.50;;;2.72;;
62353;SDS011;48391;49.184;2.418;2024-01-27T12:49:19;3.53;;;2.83;;
62353;SDS011;48391;49.184;2.418;2024-01-27T12:51:48;4.05;;;1.88;;
62353;SDS011;48391;49.184;2.418;2024-01-27T12:54:14;6.75;;;2.35;;
62353;SDS011;48391;49.184;2.418;2024-01-27T12:56:41;5.70;;;1.67;;
62353;SDS011;48391;49.184;2.418;2024-01-27T12:59:07;4.00;;;1.60;;
62353;SDS011;48391;49.184;2.418;2024-01-27T13:01:33;1.42;;;1.30;;
62353;SDS011;48391;49.184;2.418;2024-01-27T13:03:59;5.35;;;2.42;;
62353;SDS011;48391;49.184;2.418;2024-01-27T13:06:25;5.25;;;1.70;;
62353;SDS011;48391;49.184;2.418;2024-01-27T13:08:51;5.25;;;2.38;;
62353;SDS011;48391;49.184;2.418;2024-01-27T13:11:19;5.15;;;1.65;;
62353;SDS011;48391;49.184;2.418;2024-01-27T13:13:45;4.70;;;2.20;;
62353;SDS011;48391;49.184;2.418;2024-01-27T13:16:12;2.03;;;1.60;;
62353;SDS011;48391;49.184;2.418;2024-01-27T13:18:38;4.63;;;2.38;;
62353;SDS011;48391;49.184;2.418;2024-01-27T13:21:04;5.65;;;1.88;;
62353;SDS011;48391;49.184;2.418;2024-01-27T13:23:31;4.03;;;1.50;;
62353;SDS011;48391;49.184;2.418;2024-01-27T13:25:57;3.00;;;1.30;;
62353;SDS011;48391;49.184;2.418;2024-01-27T13:28:24;3.88;;;1.23;;
62353;SDS011;48391;49.184;2.418;2024-01-27T13:30:50;4.13;;;1.58;;
62353;SDS011;48391;49.184;2.418;2024-01-27T13:33:16;4.05;;;1.77;;
62353;SDS011;48391;49.184;2.418;2024-01-27T13:35:42;4.53;;;1.80;;
62353;SDS011;48391;49.184;2.418;2024-01-27T13:38:11;2.75;;;1.42;;
62353;SDS011;48391;49.184;2.418;2024-01-27T13:40:37;1.92;;;0.90;;
62353;SDS011;48391;49.184;2.418;2024-01-27T13:43:04;3.85;;;0.82;;
62353;SDS011;48391;49.184;2.418;2024-01-27T13:45:30;5.07;;;2.35;;
62353;SDS011;48391;49.184;2.418;2024-01-27T13:47:56;4.15;;;1.75;;
62353;SDS011;48391;49.184;2.418;2024-01-27T13:50:23;2.72;;;1.27;;
62353;SDS011;48391;49.184;2.418;2024-01-27T13:52:52;3.58;;;1.25;;
62353;SDS011;48391;49.184;2.418;2024-01-27T13:55:18;3.15;;;1.33;;
62353;SDS011;48391;49.184;2.418;2024-01-27T13:57:46;7.93;;;2.80;;
62353;SDS011;48391;49.184;2.418;2024-01-27T14:00:12;6.75;;;2.90;;
62353;SDS011;48391;49.184;2.418;2024-01-27T14:02:38;4.03;;;2.13;;
62353;SDS011;48391;49.184;2.418;2024-01-27T14:05:05;2.38;;;1.83;;
62353;SDS011;48391;49.184;2.418;2024-01-27T14:07:32;3.28;;;1.42;;
62353;SDS011;48391;49.184;2.418;2024-01-27T14:09:58;4.07;;;1.67;;
62353;SDS011;48391;49.184;2.418;2024-01-27T14:12:25;2.58;;;1.35;;
62353;SDS011;48391;49.184;2.418;2024-01-27T14:14:51;1.92;;;1.30;;
62353;SDS011;48391;49.184;2.418;2024-01-27T14:17:17;3.28;;;1.42;;
62353;SDS011;48391;49.184;2.418;2024-01-27T14:19:46;6.30;;;1.23;;
62353;SDS011;48391;49.184;2.418;2024-01-27T14:22:12;5.13;;;2.95;;
62353;SDS011;48391;49.184;2.418;2024-01-27T14:24:38;5.78;;;1.67;;
62353;SDS011;48391;49.184;2.418;2024-01-27T14:27:07;6.13;;;2.47;;
62353;SDS011;48391;49.184;2.418;2024-01-27T14:32:02;5.28;;;2.05;;
62353;SDS011;48391;49.184;2.418;2024-01-27T14:34:28;2.83;;;1.42;;
62353;SDS011;48391;49.184;2.418;2024-01-27T14:36:54;2.38;;;1.33;;
62353;SDS011;48391;49.184;2.418;2024-01-27T14:39:20;4.00;;;1.55;;
62353;SDS011;48391;49.184;2.418;2024-01-27T14:41:46;3.03;;;1.52;;